sensor_id;sensor_type;location;lat;lon;timestamp;pressure;altitude;pressure_sealevel;temperature;humidity
63808;BME280;49961;43.970;22.868;2023-05-12T00:00:49;101748.94;;;14.77;100.00
63808;BME280;49961;43.970;22.868;2023-05-12T00:01:50;101751.00;;;14.73;100.00
63808;BME280;49961;43.970;22.868;2023-05-12T00:02:50;101735.09;;;14.54;100.00
63808;BME280;49961;43.970;22.868;2023-05-12T00:03:51;101756.16;;;14.74;100.00
63808;BME280;49961;43.970;22.868;2023-05-12T00:04:52;101772.13;;;14.74;100.00
63808;BME280;49961;43.970;22.868;2023-05-12T00:05:53;101754.16;;;14.75;100.00
63808;BME280;49961;43.970;22.868;2023-05-12T00:06:53;101761.22;;;14.79;100.00
63808;BME280;49961;43.970;22.868;2023-05-12T00:07:54;101761.75;;;14.74;100.00
63808;BME280;49961;43.970;22.868;2023-05-12T00:08:54;101765.47;;;14.68;100.00
63808;BME280;49961;43.970;22.868;2023-05-12T00:09:55;101719.84;;;14.23;100.00
63808;BME280;49961;43.970;22.868;2023-05-12T00:10:55;101760.16;;;14.57;100.00
63808;BME280;49961;43.970;22.868;2023-05-12T00:11:56;101758.84;;;14.62;100.00
63808;BME280;49961;43.970;22.868;2023-05-12T00:12:56;101754.28;;;14.52;100.00
63808;BME280;49961;43.970;22.868;2023-05-12T00:13:57;101760.50;;;14.59;100.00
63808;BME280;49961;43.970;22.868;2023-05-12T00:14:57;101762.84;;;14.61;100.00
63808;BME280;49961;43.970;22.868;2023-05-12T00:15:58;101759.69;;;14.59;100.00
63808;BME280;49961;43.970;22.868;2023-05-12T00:16:58;101770.22;;;14.51;100.00
63808;BME280;49961;43.970;22.868;2023-05-12T00:17:58;101669.47;;;13.94;100.00
63808;BME280;49961;43.970;22.868;2023-05-12T00:18:59;101761.84;;;14.51;100.00
63808;BME280;49961;43.970;22.868;2023-05-12T00:19:59;101767.69;;;14.41;100.00
63808;BME280;49961;43.970;22.868;2023-05-12T00:21:00;101756.75;;;14.30;100.00
63808;BME280;49961;43.970;22.868;2023-05-12T00:22:01;101759.81;;;14.36;100.00
63808;BME280;49961;43.970;22.868;2023-05-12T00:23:01;101765.31;;;14.39;100.00
63808;BME280;49961;43.970;22.868;2023-05-12T00:24:02;101766.53;;;14.38;100.00
63808;BME280;49961;43.970;22.868;2023-05-12T00:25:03;101761.47;;;14.33;100.00
63808;BME280;49961;43.970;22.868;2023-05-12T00:26:04;101755.69;;;14.24;100.00
63808;BME280;49961;43.970;22.868;2023-05-12T00:27:05;101723.84;;;14.02;100.00
63808;BME280;49961;43.970;22.868;2023-05-12T00:28:05;101764.94;;;14.18;100.00
63808;BME280;49961;43.970;22.868;2023-05-12T00:29:06;101764.94;;;14.18;100.00
63808;BME280;49961;43.970;22.868;2023-05-12T00:30:07;101615.13;;;13.28;100.00
63808;BME280;49961;43.970;22.868;2023-05-12T00:31:07;101768.41;;;14.25;100.00
63808;BME280;49961;43.970;22.868;2023-05-12T00:32:08;101764.91;;;14.21;100.00
63808;BME280;49961;43.970;22.868;2023-05-12T00:33:08;101764.47;;;14.23;100.00
63808;BME280;49961;43.970;22.868;2023-05-12T00:34:09;101768.13;;;14.20;100.00
63808;BME280;49961;43.970;22.868;2023-05-12T00:35:09;101769.19;;;14.26;100.00
63808;BME280;49961;43.970;22.868;2023-05-12T00:36:09;101720.34;;;13.98;100.00
63808;BME280;49961;43.970;22.868;2023-05-12T00:37:10;101767.88;;;14.30;100.00
63808;BME280;49961;43.970;22.868;2023-05-12T00:38:11;101768.78;;;14.27;100.00
63808;BME280;49961;43.970;22.868;2023-05-12T00:39:12;101734.59;;;14.04;100.00
63808;BME280;49961;43.970;22.868;2023-05-12T00:40:12;101766.75;;;14.28;100.00
63808;BME280;49961;43.970;22.868;2023-05-12T00:41:13;101772.31;;;14.28;100.00
63808;BME280;49961;43.970;22.868;2023-05-12T00:42:13;101765.88;;;14.11;100.00
63808;BME280;49961;43.970;22.868;2023-05-12T00:43:14;101772.16;;;14.15;100.00
63808;BME280;49961;43.970;22.868;2023-05-12T00:44:14;101679.91;;;13.51;100.00
63808;BME280;49961;43.970;22.868;2023-05-12T00:45:15;101771.38;;;14.15;100.00
63808;BME280;49961;43.970;22.868;2023-05-12T00:46:16;101774.91;;;14.19;100.00
63808;BME280;49961;43.970;22.868;2023-05-12T00:47:17;101770.25;;;14.12;100.00
63808;BME280;49961;43.970;22.868;2023-05-12T00:48:19;101767.34;;;14.19;100.00
63808;BME280;49961;43.970;22.868;2023-05-12T00:49:20;101749.28;;;14.04;100.00
63808;BME280;49961;43.970;22.868;2023-05-12T00:50:21;101780.47;;;14.19;100.00
63808;BME280;49961;43.970;22.868;2023-05-12T00:51:22;101778.53;;;14.16;100.00
63808;BME280;49961;43.970;22.868;2023-05-12T00:52:23;101775.41;;;14.14;100.00
63808;BME280;49961;43.970;22.868;2023-05-12T00:53:23;101780.31;;;14.06;100.00
63808;BME280;49961;43.970;22.868;2023-05-12T00:54:25;101805.03;;;14.04;100.00
63808;BME280;49961;43.970;22.868;2023-05-12T00:55:28;101778.75;;;14.05;100.00
63808;BME280;49961;43.970;22.868;2023-05-12T00:56:28;101780.81;;;14.01;100.00
63808;BME280;49961;43.970;22.868;2023-05-12T00:57:29;101719.06;;;13.64;100.00
63808;BME280;49961;43.970;22.868;2023-05-12T00:58:30;101768.22;;;13.93;100.00
63808;BME280;49961;43.970;22.868;2023-05-12T00:59:31;101729.78;;;13.65;100.00
63808;BME280;49961;43.970;22.868;2023-05-12T01:00:31;101780.94;;;13.94;100.00
63808;BME280;49961;43.970;22.868;2023-05-12T01:01:33;101785.38;;;13.92;100.00
63808;BME280;49961;43.970;22.868;2023-05-12T01:02:34;101792.03;;;13.98;100.00
63808;BME280;49961;43.970;22.868;2023-05-12T01:03:35;101783.38;;;13.92;100.00
63808;BME280;49961;43.970;22.868;2023-05-12T01:04:37;101786.34;;;13.82;100.00
63808;BME280;49961;43.970;22.868;2023-05-12T01:06:55;101785.09;;;13.86;100.00
63808;BME280;49961;43.970;22.868;2023-05-12T01:07:59;101783.16;;;13.83;100.00
63808;BME280;49961;43.970;22.868;2023-05-12T01:08:59;101783.22;;;13.80;100.00
63808;BME280;49961;43.970;22.868;2023-05-12T01:10:00;101781.72;;;13.75;100.00
63808;BME280;49961;43.970;22.868;2023-05-12T01:11:00;101786.91;;;13.73;100.00
63808;BME280;49961;43.970;22.868;2023-05-12T01:12:01;101680.28;;;13.11;100.00
63808;BME280;49961;43.970;22.868;2023-05-12T01:13:01;101776.69;;;13.67;100.00
63808;BME280;49961;43.970;22.868;2023-05-12T01:14:02;101788.44;;;13.78;100.00
63808;BME280;49961;43.970;22.868;2023-05-12T01:15:03;101782.16;;;13.74;100.00
63808;BME280;49961;43.970;22.868;2023-05-12T01:16:04;101766.75;;;13.66;100.00
63808;BME280;49961;43.970;22.868;2023-05-12T01:17:10;101786.16;;;13.73;100.00
63808;BME280;49961;43.970;22.868;2023-05-12T01:18:14;101790.84;;;13.76;100.00
63808;BME280;49961;43.970;22.868;2023-05-12T01:20:25;101791.94;;;13.82;100.00
63808;BME280;49961;43.970;22.868;2023-05-12T01:21:27;101790.44;;;13.77;100.00
63808;BME280;49961;43.970;22.868;2023-05-12T01:22:28;101782.50;;;13.76;100.00
63808;BME280;49961;43.970;22.868;2023-05-12T01:23:35;101669.19;;;13.07;100.00
63808;BME280;49961;43.970;22.868;2023-05-12T01:24:58;101789.13;;;13.82;100.00
63808;BME280;49961;43.970;22.868;2023-05-12T01:26:04;101782.06;;;13.77;100.00
63808;BME280;49961;43.970;22.868;2023-05-12T01:27:06;101795.94;;;13.81;100.00
63808;BME280;49961;43.970;22.868;2023-05-12T01:28:07;101791.16;;;13.81;100.00
63808;BME280;49961;43.970;22.868;2023-05-12T01:29:08;101802.38;;;13.78;100.00
63808;BME280;49961;43.970;22.868;2023-05-12T01:30:09;101780.44;;;13.80;100.00
63808;BME280;49961;43.970;22.868;2023-05-12T01:31:11;101795.09;;;13.84;100.00
63808;BME280;49961;43.970;22.868;2023-05-12T01:32:14;101721.16;;;13.37;100.00
63808;BME280;49961;43.970;22.868;2023-05-12T01:33:15;101793.56;;;13.79;100.00
63808;BME280;49961;43.970;22.868;2023-05-12T01:34:15;101789.94;;;13.82;100.00
63808;BME280;49961;43.970;22.868;2023-05-12T01:35:17;101803.03;;;13.85;100.00
63808;BME280;49961;43.970;22.868;2023-05-12T01:36:18;101796.16;;;13.90;100.00
63808;BME280;49961;43.970;22.868;2023-05-12T01:37:18;101802.09;;;13.92;100.00
63808;BME280;49961;43.970;22.868;2023-05-12T01:38:19;101792.53;;;13.93;100.00
63808;BME280;49961;43.970;22.868;2023-05-12T01:39:19;101782.81;;;13.81;100.00
63808;BME280;49961;43.970;22.868;2023-05-12T01:40:20;101750.19;;;13.59;100.00
63808;BME280;49961;43.970;22.868;2023-05-12T01:41:20;101792.53;;;13.93;100.00
63808;BME280;49961;43.970;22.868;2023-05-12T01:42:20;101806.03;;;13.94;100.00
63808;BME280;49961;43.970;22.868;2023-05-12T01:43:21;101791.97;;;14.01;100.00
63808;BME280;49961;43.970;22.868;2023-05-12T01:44:21;101802.75;;;13.99;100.00
63808;BME280;49961;43.970;22.868;2023-05-12T01:45:22;101795.25;;;13.96;100.00
63808;BME280;49961;43.970;22.868;2023-05-12T01:46:22;101805.59;;;13.96;100.00
63808;BME280;49961;43.970;22.868;2023-05-12T01:47:23;101799.97;;;13.99;100.00
63808;BME280;49961;43.970;22.868;2023-05-12T01:48:24;101801.09;;;14.02;100.00
63808;BME280;49961;43.970;22.868;2023-05-12T01:49:24;101799.91;;;14.03;100.00
63808;BME280;49961;43.970;22.868;2023-05-12T01:50:25;101788.16;;;13.92;100.00
63808;BME280;49961;43.970;22.868;2023-05-12T01:51:25;101804.84;;;13.95;100.00
63808;BME280;49961;43.970;22.868;2023-05-12T01:52:25;101805.69;;;13.92;100.00
63808;BME280;49961;43.970;22.868;2023-05-12T01:53:27;101799.09;;;13.83;100.00
63808;BME280;49961;43.970;22.868;2023-05-12T01:54:27;101797.56;;;13.78;100.00
63808;BME280;49961;43.970;22.868;2023-05-12T01:55:28;101801.56;;;13.77;100.00
63808;BME280;49961;43.970;22.868;2023-05-12T01:56:28;101789.59;;;13.80;100.00
63808;BME280;49961;43.970;22.868;2023-05-12T01:57:28;101799.03;;;13.86;100.00
63808;BME280;49961;43.970;22.868;2023-05-12T01:58:29;101791.88;;;13.85;100.00
63808;BME280;49961;43.970;22.868;2023-05-12T01:59:29;101797.00;;;13.87;100.00
63808;BME280;49961;43.970;22.868;2023-05-12T02:00:30;101797.38;;;13.89;100.00
63808;BME280;49961;43.970;22.868;2023-05-12T02:01:30;101801.00;;;13.86;100.00
63808;BME280;49961;43.970;22.868;2023-05-12T02:02:31;101792.72;;;13.82;100.00
63808;BME280;49961;43.970;22.868;2023-05-12T02:03:33;101798.78;;;13.77;100.00
63808;BME280;49961;43.970;22.868;2023-05-12T02:04:33;101793.63;;;13.76;100.00
63808;BME280;49961;43.970;22.868;2023-05-12T02:05:34;101783.56;;;13.82;100.00
63808;BME280;49961;43.970;22.868;2023-05-12T02:06:34;101799.94;;;13.80;100.00
63808;BME280;49961;43.970;22.868;2023-05-12T02:07:35;101795.66;;;13.75;100.00
63808;BME280;49961;43.970;22.868;2023-05-12T02:08:35;101805.69;;;13.69;100.00
63808;BME280;49961;43.970;22.868;2023-05-12T02:09:36;101796.19;;;13.67;100.00
63808;BME280;49961;43.970;22.868;2023-05-12T02:10:36;101805.41;;;13.64;100.00
63808;BME280;49961;43.970;22.868;2023-05-12T02:11:36;101798.13;;;13.70;100.00
63808;BME280;49961;43.970;22.868;2023-05-12T02:12:37;101747.38;;;13.39;100.00
63808;BME280;49961;43.970;22.868;2023-05-12T02:13:38;101694.00;;;12.98;100.00
63808;BME280;49961;43.970;22.868;2023-05-12T02:14:38;101806.06;;;13.71;100.00
63808;BME280;49961;43.970;22.868;2023-05-12T02:15:39;101803.34;;;13.68;100.00
63808;BME280;49961;43.970;22.868;2023-05-12T02:16:39;101810.50;;;13.69;100.00
63808;BME280;49961;43.970;22.868;2023-05-12T02:17:39;101800.97;;;13.66;100.00
63808;BME280;49961;43.970;22.868;2023-05-12T02:18:40;101809.75;;;13.65;100.00
63808;BME280;49961;43.970;22.868;2023-05-12T02:19:40;101802.91;;;13.69;100.00
63808;BME280;49961;43.970;22.868;2023-05-12T02:20:40;101805.00;;;13.65;100.00
63808;BME280;49961;43.970;22.868;2023-05-12T02:21:41;101807.41;;;13.63;100.00
63808;BME280;49961;43.970;22.868;2023-05-12T02:22:41;101820.13;;;13.64;100.00
63808;BME280;49961;43.970;22.868;2023-05-12T02:23:42;101806.63;;;13.63;100.00
63808;BME280;49961;43.970;22.868;2023-05-12T02:24:42;101813.09;;;13.56;100.00
63808;BME280;49961;43.970;22.868;2023-05-12T02:25:42;101769.06;;;13.25;100.00
63808;BME280;49961;43.970;22.868;2023-05-12T02:26:43;101810.78;;;13.51;100.00
63808;BME280;49961;43.970;22.868;2023-05-12T02:27:43;101820.78;;;13.49;100.00
63808;BME280;49961;43.970;22.868;2023-05-12T02:28:44;101820.94;;;13.38;100.00
63808;BME280;49961;43.970;22.868;2023-05-12T02:29:44;101812.72;;;13.31;100.00
63808;BME280;49961;43.970;22.868;2023-05-12T02:30:46;101815.03;;;13.36;100.00
63808;BME280;49961;43.970;22.868;2023-05-12T02:31:47;101812.59;;;13.38;100.00
63808;BME280;49961;43.970;22.868;2023-05-12T02:32:48;101821.34;;;13.40;100.00
63808;BME280;49961;43.970;22.868;2023-05-12T02:33:48;101816.25;;;13.35;100.00
63808;BME280;49961;43.970;22.868;2023-05-12T02:34:50;101815.81;;;13.37;100.00
63808;BME280;49961;43.970;22.868;2023-05-12T02:35:51;101826.97;;;13.37;100.00
63808;BME280;49961;43.970;22.868;2023-05-12T02:36:51;101819.13;;;13.28;100.00
63808;BME280;49961;43.970;22.868;2023-05-12T02:37:51;101826.28;;;13.29;100.00
63808;BME280;49961;43.970;22.868;2023-05-12T02:38:52;101823.50;;;13.29;100.00
63808;BME280;49961;43.970;22.868;2023-05-12T02:39:52;101821.19;;;13.24;100.00
63808;BME280;49961;43.970;22.868;2023-05-12T02:40:53;101818.56;;;13.14;100.00
63808;BME280;49961;43.970;22.868;2023-05-12T02:41:53;101821.34;;;13.14;100.00
63808;BME280;49961;43.970;22.868;2023-05-12T02:42:53;101816.66;;;13.11;100.00
63808;BME280;49961;43.970;22.868;2023-05-12T02:43:54;101833.69;;;13.13;100.00
63808;BME280;49961;43.970;22.868;2023-05-12T02:44:54;101825.75;;;13.11;100.00
63808;BME280;49961;43.970;22.868;2023-05-12T02:45:55;101825.03;;;13.07;100.00
63808;BME280;49961;43.970;22.868;2023-05-12T02:46:55;101834.91;;;13.12;100.00
63808;BME280;49961;43.970;22.868;2023-05-12T02:47:57;101826.56;;;13.12;100.00
63808;BME280;49961;43.970;22.868;2023-05-12T02:48:57;101833.84;;;13.02;100.00
63808;BME280;49961;43.970;22.868;2023-05-12T02:49:57;101741.66;;;12.44;100.00
63808;BME280;49961;43.970;22.868;2023-05-12T02:50:58;101770.44;;;12.60;100.00
63808;BME280;49961;43.970;22.868;2023-05-12T02:51:58;101833.91;;;12.99;100.00
63808;BME280;49961;43.970;22.868;2023-05-12T02:52:59;101834.34;;;12.94;100.00
63808;BME280;49961;43.970;22.868;2023-05-12T02:53:59;101835.97;;;12.91;100.00
63808;BME280;49961;43.970;22.868;2023-05-12T02:55:00;101836.38;;;12.90;100.00
63808;BME280;49961;43.970;22.868;2023-05-12T02:56:00;101785.22;;;12.54;100.00
63808;BME280;49961;43.970;22.868;2023-05-12T02:57:05;101839.91;;;12.94;100.00
63808;BME280;49961;43.970;22.868;2023-05-12T02:58:06;101837.91;;;12.94;100.00
63808;BME280;49961;43.970;22.868;2023-05-12T02:59:07;101833.28;;;12.84;100.00
63808;BME280;49961;43.970;22.868;2023-05-12T03:00:08;101778.75;;;12.34;100.00
63808;BME280;49961;43.970;22.868;2023-05-12T03:01:08;101852.38;;;12.82;100.00
63808;BME280;49961;43.970;22.868;2023-05-12T03:02:09;101841.69;;;12.81;100.00
63808;BME280;49961;43.970;22.868;2023-05-12T03:03:09;101836.53;;;12.79;100.00
63808;BME280;49961;43.970;22.868;2023-05-12T03:04:10;101854.81;;;12.80;100.00
63808;BME280;49961;43.970;22.868;2023-05-12T03:05:10;101842.16;;;12.76;100.00
63808;BME280;49961;43.970;22.868;2023-05-12T03:06:10;101853.59;;;12.81;100.00
63808;BME280;49961;43.970;22.868;2023-05-12T03:07:11;101852.03;;;12.80;100.00
63808;BME280;49961;43.970;22.868;2023-05-12T03:08:11;101850.44;;;12.79;100.00
63808;BME280;49961;43.970;22.868;2023-05-12T03:09:12;101826.88;;;12.61;100.00
63808;BME280;49961;43.970;22.868;2023-05-12T03:10:12;101848.78;;;12.85;100.00
63808;BME280;49961;43.970;22.868;2023-05-12T03:11:13;101724.84;;;11.94;100.00
63808;BME280;49961;43.970;22.868;2023-05-12T03:12:13;101850.81;;;12.81;100.00
63808;BME280;49961;43.970;22.868;2023-05-12T03:13:14;101857.91;;;12.86;100.00
63808;BME280;49961;43.970;22.868;2023-05-12T03:14:14;101851.28;;;12.76;100.00
63808;BME280;49961;43.970;22.868;2023-05-12T03:15:15;101861.25;;;12.74;100.00
63808;BME280;49961;43.970;22.868;2023-05-12T03:16:15;101854.50;;;12.75;100.00
63808;BME280;49961;43.970;22.868;2023-05-12T03:17:16;101861.22;;;12.77;100.00
63808;BME280;49961;43.970;22.868;2023-05-12T03:18:17;101856.88;;;12.73;100.00
63808;BME280;49961;43.970;22.868;2023-05-12T03:19:17;101828.56;;;12.51;100.00
63808;BME280;49961;43.970;22.868;2023-05-12T03:20:18;101866.09;;;12.70;100.00
63808;BME280;49961;43.970;22.868;2023-05-12T03:21:19;101862.50;;;12.69;100.00
63808;BME280;49961;43.970;22.868;2023-05-12T03:22:19;101868.88;;;12.70;100.00
63808;BME280;49961;43.970;22.868;2023-05-12T03:23:20;101881.88;;;12.76;100.00
63808;BME280;49961;43.970;22.868;2023-05-12T03:24:20;101867.97;;;12.76;100.00
63808;BME280;49961;43.970;22.868;2023-05-12T03:25:20;101867.19;;;12.76;100.00
63808;BME280;49961;43.970;22.868;2023-05-12T03:26:21;101879.09;;;12.76;100.00
63808;BME280;49961;43.970;22.868;2023-05-12T03:27:22;101870.09;;;12.65;100.00
63808;BME280;49961;43.970;22.868;2023-05-12T03:28:22;101867.25;;;12.69;100.00
63808;BME280;49961;43.970;22.868;2023-05-12T03:29:23;101880.31;;;12.75;100.00
63808;BME280;49961;43.970;22.868;2023-05-12T03:30:24;101887.81;;;12.78;100.00
63808;BME280;49961;43.970;22.868;2023-05-12T03:31:24;101885.41;;;12.80;100.00
63808;BME280;49961;43.970;22.868;2023-05-12T03:32:25;101885.41;;;12.80;100.00
63808;BME280;49961;43.970;22.868;2023-05-12T03:33:26;101892.13;;;12.83;100.00
63808;BME280;49961;43.970;22.868;2023-05-12T03:34:26;101888.19;;;12.80;100.00
63808;BME280;49961;43.970;22.868;2023-05-12T03:35:27;101887.41;;;12.80;100.00
63808;BME280;49961;43.970;22.868;2023-05-12T03:36:27;101890.16;;;12.83;100.00
63808;BME280;49961;43.970;22.868;2023-05-12T03:37:28;101866.09;;;12.70;100.00
63808;BME280;49961;43.970;22.868;2023-05-12T03:38:28;101898.59;;;12.73;100.00
63808;BME280;49961;43.970;22.868;2023-05-12T03:39:29;101893.47;;;12.71;100.00
63808;BME280;49961;43.970;22.868;2023-05-12T03:40:29;101894.81;;;12.60;100.00
63808;BME280;49961;43.970;22.868;2023-05-12T03:41:30;101899.22;;;12.54;100.00
63808;BME280;49961;43.970;22.868;2023-05-12T03:42:31;101895.72;;;12.50;100.00
63808;BME280;49961;43.970;22.868;2023-05-12T03:43:31;101895.63;;;12.57;100.00
63808;BME280;49961;43.970;22.868;2023-05-12T03:44:32;101882.72;;;12.40;100.00
63808;BME280;49961;43.970;22.868;2023-05-12T03:45:32;101812.63;;;11.88;100.00
63808;BME280;49961;43.970;22.868;2023-05-12T03:46:33;101902.50;;;12.45;100.00
63808;BME280;49961;43.970;22.868;2023-05-12T03:47:33;101909.19;;;12.51;100.00
63808;BME280;49961;43.970;22.868;2023-05-12T03:48:35;101908.06;;;12.45;100.00
63808;BME280;49961;43.970;22.868;2023-05-12T03:49:35;101909.66;;;12.46;100.00
63808;BME280;49961;43.970;22.868;2023-05-12T03:50:36;101898.28;;;12.34;100.00
63808;BME280;49961;43.970;22.868;2023-05-12T03:51:36;101919.59;;;12.47;100.00
63808;BME280;49961;43.970;22.868;2023-05-12T03:52:37;101789.09;;;11.63;100.00
63808;BME280;49961;43.970;22.868;2023-05-12T03:53:40;101913.63;;;12.45;100.00
63808;BME280;49961;43.970;22.868;2023-05-12T03:54:44;101919.59;;;12.44;100.00
63808;BME280;49961;43.970;22.868;2023-05-12T03:55:44;101910.84;;;12.45;100.00
63808;BME280;49961;43.970;22.868;2023-05-12T03:56:45;101923.53;;;12.50;100.00
63808;BME280;49961;43.970;22.868;2023-05-12T03:57:46;101925.09;;;12.51;100.00
63808;BME280;49961;43.970;22.868;2023-05-12T03:58:47;101925.06;;;12.54;100.00
63808;BME280;49961;43.970;22.868;2023-05-12T03:59:48;101924.31;;;12.50;100.00
63808;BME280;49961;43.970;22.868;2023-05-12T04:00:49;101926.31;;;12.50;100.00
63808;BME280;49961;43.970;22.868;2023-05-12T04:01:51;101925.91;;;12.48;100.00
63808;BME280;49961;43.970;22.868;2023-05-12T04:02:52;101928.28;;;12.49;100.00
63808;BME280;49961;43.970;22.868;2023-05-12T04:03:52;101933.50;;;12.47;100.00
63808;BME280;49961;43.970;22.868;2023-05-12T04:04:53;101934.72;;;12.43;100.00
63808;BME280;49961;43.970;22.868;2023-05-12T04:06:01;101933.91;;;12.46;100.00
63808;BME280;49961;43.970;22.868;2023-05-12T04:07:01;101939.06;;;12.44;100.00
63808;BME280;49961;43.970;22.868;2023-05-12T04:08:02;101938.75;;;12.38;100.00
63808;BME280;49961;43.970;22.868;2023-05-12T04:09:03;101956.97;;;12.43;100.00
63808;BME280;49961;43.970;22.868;2023-05-12T04:10:03;101941.84;;;12.47;100.00
63808;BME280;49961;43.970;22.868;2023-05-12T04:11:04;101945.78;;;12.50;100.00
63808;BME280;49961;43.970;22.868;2023-05-12T04:12:04;101921.66;;;12.40;100.00
63808;BME280;49961;43.970;22.868;2023-05-12T04:13:06;101949.38;;;12.47;100.00
63808;BME280;49961;43.970;22.868;2023-05-12T04:14:07;101857.47;;;11.90;100.00
63808;BME280;49961;43.970;22.868;2023-05-12T04:15:08;101957.66;;;12.50;100.00
63808;BME280;49961;43.970;22.868;2023-05-12T04:16:08;101945.78;;;12.46;100.00
63808;BME280;49961;43.970;22.868;2023-05-12T04:17:09;101948.56;;;12.50;100.00
63808;BME280;49961;43.970;22.868;2023-05-12T04:18:10;101947.81;;;12.46;100.00
63808;BME280;49961;43.970;22.868;2023-05-12T04:19:10;101812.91;;;11.60;100.00
63808;BME280;49961;43.970;22.868;2023-05-12T04:20:11;101943.09;;;12.39;100.00
63808;BME280;49961;43.970;22.868;2023-05-12T04:21:12;101948.63;;;12.43;100.00
63808;BME280;49961;43.970;22.868;2023-05-12T04:22:12;101949.00;;;12.45;100.00
63808;BME280;49961;43.970;22.868;2023-05-12T04:23:12;101946.63;;;12.43;100.00
63808;BME280;49961;43.970;22.868;2023-05-12T04:24:14;101951.41;;;12.43;100.00
63808;BME280;49961;43.970;22.868;2023-05-12T04:25:14;101957.00;;;12.39;100.00
63808;BME280;49961;43.970;22.868;2023-05-12T04:26:15;101949.91;;;12.35;100.00
63808;BME280;49961;43.970;22.868;2023-05-12T04:27:15;101839.09;;;11.56;100.00
63808;BME280;49961;43.970;22.868;2023-05-12T04:28:15;101946.44;;;12.24;100.00
63808;BME280;49961;43.970;22.868;2023-05-12T04:29:16;101943.22;;;12.25;100.00
63808;BME280;49961;43.970;22.868;2023-05-12T04:30:16;101881.63;;;11.93;100.00
63808;BME280;49961;43.970;22.868;2023-05-12T04:31:17;101807.81;;;11.48;100.00
63808;BME280;49961;43.970;22.868;2023-05-12T04:32:17;101949.97;;;12.28;100.00
63808;BME280;49961;43.970;22.868;2023-05-12T04:33:17;101953.56;;;12.25;100.00
63808;BME280;49961;43.970;22.868;2023-05-12T04:34:18;101950.03;;;12.21;100.00
63808;BME280;49961;43.970;22.868;2023-05-12T04:35:18;101950.03;;;12.21;100.00
63808;BME280;49961;43.970;22.868;2023-05-12T04:36:19;101950.03;;;12.21;100.00
63808;BME280;49961;43.970;22.868;2023-05-12T04:37:19;101943.72;;;12.17;100.00
63808;BME280;49961;43.970;22.868;2023-05-12T04:38:21;101956.03;;;12.16;100.00
63808;BME280;49961;43.970;22.868;2023-05-12T04:39:21;101947.75;;;12.12;100.00
63808;BME280;49961;43.970;22.868;2023-05-12T04:40:22;101929.25;;;11.92;100.00
63808;BME280;49961;43.970;22.868;2023-05-12T04:41:22;101955.69;;;12.10;100.00
63808;BME280;49961;43.970;22.868;2023-05-12T04:42:23;101963.63;;;12.12;100.00
63808;BME280;49961;43.970;22.868;2023-05-12T04:43:23;101959.28;;;12.07;100.00
63808;BME280;49961;43.970;22.868;2023-05-12T04:44:24;101962.00;;;12.14;100.00
63808;BME280;49961;43.970;22.868;2023-05-12T04:45:24;101966.78;;;12.14;100.00
63808;BME280;49961;43.970;22.868;2023-05-12T04:46:24;101960.47;;;12.10;100.00
63808;BME280;49961;43.970;22.868;2023-05-12T04:47:25;101960.78;;;12.15;100.00
63808;BME280;49961;43.970;22.868;2023-05-12T04:48:26;101892.94;;;11.72;100.00
63808;BME280;49961;43.970;22.868;2023-05-12T04:49:27;101958.47;;;12.10;100.00
63808;BME280;49961;43.970;22.868;2023-05-12T04:50:27;101952.13;;;12.10;100.00
63808;BME280;49961;43.970;22.868;2023-05-12T04:51:27;101950.88;;;12.14;100.00
63808;BME280;49961;43.970;22.868;2023-05-12T04:52:28;101950.84;;;12.18;100.00
63808;BME280;49961;43.970;22.868;2023-05-12T04:53:28;101958.41;;;12.17;100.00
63808;BME280;49961;43.970;22.868;2023-05-12T04:54:33;101951.19;;;12.23;100.00
63808;BME280;49961;43.970;22.868;2023-05-12T04:55:33;101955.97;;;12.23;100.00
63808;BME280;49961;43.970;22.868;2023-05-12T04:56:34;101953.19;;;12.23;100.00
63808;BME280;49961;43.970;22.868;2023-05-12T04:57:34;101895.59;;;11.86;100.00
63808;BME280;49961;43.970;22.868;2023-05-12T04:58:35;101954.78;;;12.20;100.00
63808;BME280;49961;43.970;22.868;2023-05-12T04:59:36;101951.97;;;12.27;100.00
63808;BME280;49961;43.970;22.868;2023-05-12T05:00:36;101953.50;;;12.32;100.00
63808;BME280;49961;43.970;22.868;2023-05-12T05:01:37;101960.56;;;12.40;100.00
63808;BME280;49961;43.970;22.868;2023-05-12T05:02:37;101952.19;;;12.43;100.00
63808;BME280;49961;43.970;22.868;2023-05-12T05:03:38;101964.41;;;12.53;100.00
63808;BME280;49961;43.970;22.868;2023-05-12T05:04:39;101965.16;;;12.57;100.00
63808;BME280;49961;43.970;22.868;2023-05-12T05:05:39;101960.34;;;12.61;100.00
63808;BME280;49961;43.970;22.868;2023-05-12T05:06:40;101961.84;;;12.69;100.00
63808;BME280;49961;43.970;22.868;2023-05-12T05:07:40;101969.72;;;12.74;100.00
63808;BME280;49961;43.970;22.868;2023-05-12T05:08:41;101965.31;;;12.76;100.00
63808;BME280;49961;43.970;22.868;2023-05-12T05:09:41;101969.66;;;12.81;100.00
63808;BME280;49961;43.970;22.868;2023-05-12T05:11:00;101970.78;;;12.87;100.00
63808;BME280;49961;43.970;22.868;2023-05-12T05:12:01;101975.22;;;12.81;100.00
63808;BME280;49961;43.970;22.868;2023-05-12T05:13:02;101968.84;;;12.80;100.00